sensor_id;sensor_type;location;lat;lon;timestamp;pressure;altitude;pressure_sealevel;temperature
11424;BMP180;5768;51.476;7.210;2023-03-23T00:04:42;99120.00;;;15.00
11424;BMP180;5768;51.476;7.210;2023-03-23T00:09:45;99116.00;;;15.00
11424;BMP180;5768;51.476;7.210;2023-03-23T00:14:48;99110.00;;;15.00
11424;BMP180;5768;51.476;7.210;2023-03-23T00:19:56;99106.00;;;15.00
11424;BMP180;5768;51.476;7.210;2023-03-23T00:24:58;99095.00;;;15.00
11424;BMP180;5768;51.476;7.210;2023-03-23T00:30:00;99094.00;;;15.00
11424;BMP180;5768;51.476;7.210;2023-03-23T00:35:04;99088.00;;;15.00
11424;BMP180;5768;51.476;7.210;2023-03-23T00:40:09;99079.00;;;15.00
11424;BMP180;5768;51.476;7.210;2023-03-23T00:45:11;99066.00;;;15.00
11424;BMP180;5768;51.476;7.210;2023-03-23T00:50:15;99078.00;;;15.00
11424;BMP180;5768;51.476;7.210;2023-03-23T00:55:40;99086.00;;;15.10
11424;BMP180;5768;51.476;7.210;2023-03-23T01:00:43;99089.00;;;15.10
11424;BMP180;5768;51.476;7.210;2023-03-23T01:05:47;99081.00;;;15.20
11424;BMP180;5768;51.476;7.210;2023-03-23T01:11:03;99083.00;;;15.20
11424;BMP180;5768;51.476;7.210;2023-03-23T01:16:06;99065.00;;;15.20
11424;BMP180;5768;51.476;7.210;2023-03-23T01:21:12;99086.00;;;15.10
11424;BMP180;5768;51.476;7.210;2023-03-23T01:26:19;99064.00;;;15.10
11424;BMP180;5768;51.476;7.210;2023-03-23T01:31:24;99077.00;;;15.20
11424;BMP180;5768;51.476;7.210;2023-03-23T01:36:29;99074.00;;;15.20
11424;BMP180;5768;51.476;7.210;2023-03-23T01:41:36;99078.00;;;15.10
11424;BMP180;5768;51.476;7.210;2023-03-23T01:46:41;99093.00;;;15.00
11424;BMP180;5768;51.476;7.210;2023-03-23T01:51:49;99068.00;;;15.00
11424;BMP180;5768;51.476;7.210;2023-03-23T01:56:59;99021.00;;;15.00
11424;BMP180;5768;51.476;7.210;2023-03-23T02:02:02;98977.00;;;15.00
11424;BMP180;5768;51.476;7.210;2023-03-23T02:07:06;98970.00;;;15.00
11424;BMP180;5768;51.476;7.210;2023-03-23T02:12:08;98957.00;;;15.00
11424;BMP180;5768;51.476;7.210;2023-03-23T02:17:17;98979.00;;;15.00
11424;BMP180;5768;51.476;7.210;2023-03-23T02:29:00;99028.00;;;15.10
11424;BMP180;5768;51.476;7.210;2023-03-23T02:34:15;99020.00;;;15.10
11424;BMP180;5768;51.476;7.210;2023-03-23T02:39:23;98983.00;;;15.10
11424;BMP180;5768;51.476;7.210;2023-03-23T02:44:29;98997.00;;;15.10
11424;BMP180;5768;51.476;7.210;2023-03-23T02:49:39;98990.00;;;15.00
11424;BMP180;5768;51.476;7.210;2023-03-23T02:54:44;98968.00;;;14.90
11424;BMP180;5768;51.476;7.210;2023-03-23T02:59:48;98954.00;;;14.90
11424;BMP180;5768;51.476;7.210;2023-03-23T03:05:02;98959.00;;;14.90
11424;BMP180;5768;51.476;7.210;2023-03-23T03:10:12;98973.00;;;14.80
11424;BMP180;5768;51.476;7.210;2023-03-23T03:15:26;98990.00;;;14.90
11424;BMP180;5768;51.476;7.210;2023-03-23T03:20:32;98964.00;;;14.90
11424;BMP180;5768;51.476;7.210;2023-03-23T03:25:36;98982.00;;;14.90
11424;BMP180;5768;51.476;7.210;2023-03-23T03:30:40;98979.00;;;14.90
11424;BMP180;5768;51.476;7.210;2023-03-23T03:35:47;98975.00;;;14.90
11424;BMP180;5768;51.476;7.210;2023-03-23T03:40:51;98967.00;;;14.90
11424;BMP180;5768;51.476;7.210;2023-03-23T03:45:53;98968.00;;;15.00
11424;BMP180;5768;51.476;7.210;2023-03-23T03:50:57;98955.00;;;15.00
11424;BMP180;5768;51.476;7.210;2023-03-23T03:56:01;98950.00;;;15.00
11424;BMP180;5768;51.476;7.210;2023-03-23T04:01:07;98953.00;;;15.00
11424;BMP180;5768;51.476;7.210;2023-03-23T04:06:13;98942.00;;;15.00
11424;BMP180;5768;51.476;7.210;2023-03-23T04:11:15;98952.00;;;15.00
11424;BMP180;5768;51.476;7.210;2023-03-23T04:16:18;98949.00;;;15.00
11424;BMP180;5768;51.476;7.210;2023-03-23T04:21:23;98960.00;;;15.00
11424;BMP180;5768;51.476;7.210;2023-03-23T04:26:29;98968.00;;;15.10
11424;BMP180;5768;51.476;7.210;2023-03-23T04:31:33;98969.00;;;15.10
11424;BMP180;5768;51.476;7.210;2023-03-23T04:36:37;98967.00;;;15.10
11424;BMP180;5768;51.476;7.210;2023-03-23T04:41:40;98968.00;;;15.10
11424;BMP180;5768;51.476;7.210;2023-03-23T04:46:43;98969.00;;;15.00
11424;BMP180;5768;51.476;7.210;2023-03-23T04:51:47;98991.00;;;15.10
11424;BMP180;5768;51.476;7.210;2023-03-23T04:56:51;98968.00;;;15.10
11424;BMP180;5768;51.476;7.210;2023-03-23T05:01:54;98980.00;;;15.10
11424;BMP180;5768;51.476;7.210;2023-03-23T05:06:58;98994.00;;;15.20
11424;BMP180;5768;51.476;7.210;2023-03-23T05:12:05;98990.00;;;15.20
11424;BMP180;5768;51.476;7.210;2023-03-23T05:17:10;98999.00;;;15.20
11424;BMP180;5768;51.476;7.210;2023-03-23T05:22:14;99005.00;;;15.20
11424;BMP180;5768;51.476;7.210;2023-03-23T05:27:18;99010.00;;;15.20
11424;BMP180;5768;51.476;7.210;2023-03-23T05:32:21;99011.00;;;15.20
11424;BMP180;5768;51.476;7.210;2023-03-23T05:37:31;99006.00;;;15.20
11424;BMP180;5768;51.476;7.210;2023-03-23T05:42:35;99012.00;;;15.20
11424;BMP180;5768;51.476;7.210;2023-03-23T05:47:38;99016.00;;;15.30
11424;BMP180;5768;51.476;7.210;2023-03-23T05:52:41;99014.00;;;15.30
11424;BMP180;5768;51.476;7.210;2023-03-23T05:57:44;99002.00;;;15.30
11424;BMP180;5768;51.476;7.210;2023-03-23T06:02:47;99007.00;;;15.40
11424;BMP180;5768;51.476;7.210;2023-03-23T06:07:51;99018.00;;;15.40
11424;BMP180;5768;51.476;7.210;2023-03-23T06:12:54;99036.00;;;15.40
11424;BMP180;5768;51.476;7.210;2023-03-23T06:17:58;99025.00;;;15.50
11424;BMP180;5768;51.476;7.210;2023-03-23T06:23:02;99030.00;;;15.50
11424;BMP180;5768;51.476;7.210;2023-03-23T06:28:05;99037.00;;;15.50
11424;BMP180;5768;51.476;7.210;2023-03-23T06:33:07;99055.00;;;15.50
11424;BMP180;5768;51.476;7.210;2023-03-23T06:38:14;99047.00;;;15.60
11424;BMP180;5768;51.476;7.210;2023-03-23T06:43:16;99052.00;;;15.70
11424;BMP180;5768;51.476;7.210;2023-03-23T06:48:18;99042.00;;;15.80
11424;BMP180;5768;51.476;7.210;2023-03-23T06:53:22;99049.00;;;15.80
11424;BMP180;5768;51.476;7.210;2023-03-23T06:58:24;99049.00;;;15.80
11424;BMP180;5768;51.476;7.210;2023-03-23T07:03:27;99070.00;;;15.90
11424;BMP180;5768;51.476;7.210;2023-03-23T07:08:31;99043.00;;;15.90
11424;BMP180;5768;51.476;7.210;2023-03-23T07:13:33;99059.00;;;16.10
11424;BMP180;5768;51.476;7.210;2023-03-23T07:18:35;99053.00;;;16.00
11424;BMP180;5768;51.476;7.210;2023-03-23T07:23:39;99065.00;;;16.00
11424;BMP180;5768;51.476;7.210;2023-03-23T07:28:41;99079.00;;;16.00
11424;BMP180;5768;51.476;7.210;2023-03-23T07:33:43;99076.00;;;16.10
11424;BMP180;5768;51.476;7.210;2023-03-23T07:38:47;99088.00;;;16.20
11424;BMP180;5768;51.476;7.210;2023-03-23T07:43:50;99087.00;;;16.10
11424;BMP180;5768;51.476;7.210;2023-03-23T07:48:52;99092.00;;;16.20
11424;BMP180;5768;51.476;7.210;2023-03-23T07:53:56;99098.00;;;16.20
11424;BMP180;5768;51.476;7.210;2023-03-23T07:58:58;99089.00;;;16.20
11424;BMP180;5768;51.476;7.210;2023-03-23T08:04:01;99095.00;;;16.40
11424;BMP180;5768;51.476;7.210;2023-03-23T08:09:05;99095.00;;;16.40
11424;BMP180;5768;51.476;7.210;2023-03-23T08:14:09;99096.00;;;16.60
11424;BMP180;5768;51.476;7.210;2023-03-23T08:19:12;99088.00;;;16.50
11424;BMP180;5768;51.476;7.210;2023-03-23T08:24:16;99083.00;;;16.50
11424;BMP180;5768;51.476;7.210;2023-03-23T08:29:21;99098.00;;;16.80
11424;BMP180;5768;51.476;7.210;2023-03-23T08:34:23;99103.00;;;16.80
11424;BMP180;5768;51.476;7.210;2023-03-23T08:39:27;99088.00;;;17.00
11424;BMP180;5768;51.476;7.210;2023-03-23T08:44:30;99087.00;;;17.20
11424;BMP180;5768;51.476;7.210;2023-03-23T08:49:35;99101.00;;;17.30
11424;BMP180;5768;51.476;7.210;2023-03-23T08:54:38;99128.00;;;17.30
11424;BMP180;5768;51.476;7.210;2023-03-23T08:59:42;99127.00;;;17.50
11424;BMP180;5768;51.476;7.210;2023-03-23T09:04:44;99119.00;;;17.60
11424;BMP180;5768;51.476;7.210;2023-03-23T09:09:48;99118.00;;;17.50
11424;BMP180;5768;51.476;7.210;2023-03-23T09:14:50;99130.00;;;17.40
11424;BMP180;5768;51.476;7.210;2023-03-23T09:19:55;99131.00;;;17.20
11424;BMP180;5768;51.476;7.210;2023-03-23T09:24:58;99149.00;;;17.10
11424;BMP180;5768;51.476;7.210;2023-03-23T09:30:01;99146.00;;;17.00
11424;BMP180;5768;51.476;7.210;2023-03-23T09:35:06;99145.00;;;17.00
11424;BMP180;5768;51.476;7.210;2023-03-23T09:40:15;99143.00;;;17.10
11424;BMP180;5768;51.476;7.210;2023-03-23T09:45:28;99146.00;;;17.10
11424;BMP180;5768;51.476;7.210;2023-03-23T09:50:34;99140.00;;;17.10
11424;BMP180;5768;51.476;7.210;2023-03-23T09:55:41;99148.00;;;16.90
11424;BMP180;5768;51.476;7.210;2023-03-23T10:00:57;99148.00;;;16.90
11424;BMP180;5768;51.476;7.210;2023-03-23T10:06:01;99189.00;;;17.00
11424;BMP180;5768;51.476;7.210;2023-03-23T10:11:14;99193.00;;;16.40
11424;BMP180;5768;51.476;7.210;2023-03-23T10:16:23;99199.00;;;15.40
11424;BMP180;5768;51.476;7.210;2023-03-23T10:21:28;99218.00;;;14.40
11424;BMP180;5768;51.476;7.210;2023-03-23T10:26:50;99232.00;;;13.90
11424;BMP180;5768;51.476;7.210;2023-03-23T10:32:02;99235.00;;;13.80
11424;BMP180;5768;51.476;7.210;2023-03-23T10:37:11;99230.00;;;13.80
11424;BMP180;5768;51.476;7.210;2023-03-23T10:42:25;99247.00;;;13.90
11424;BMP180;5768;51.476;7.210;2023-03-23T10:47:28;99260.00;;;14.10
11424;BMP180;5768;51.476;7.210;2023-03-23T10:52:34;99241.00;;;14.60
11424;BMP180;5768;51.476;7.210;2023-03-23T10:57:40;99257.00;;;14.80
11424;BMP180;5768;51.476;7.210;2023-03-23T11:02:47;99242.00;;;14.90
11424;BMP180;5768;51.476;7.210;2023-03-23T11:07:54;99239.00;;;15.50
11424;BMP180;5768;51.476;7.210;2023-03-23T11:12:58;99249.00;;;15.50
11424;BMP180;5768;51.476;7.210;2023-03-23T11:18:04;99257.00;;;15.10
11424;BMP180;5768;51.476;7.210;2023-03-23T11:23:22;99250.00;;;14.80
11424;BMP180;5768;51.476;7.210;2023-03-23T11:28:34;99253.00;;;14.70
11424;BMP180;5768;51.476;7.210;2023-03-23T11:33:54;99243.00;;;14.50
11424;BMP180;5768;51.476;7.210;2023-03-23T11:38:57;99243.00;;;14.50
11424;BMP180;5768;51.476;7.210;2023-03-23T11:44:09;99242.00;;;14.60
11424;BMP180;5768;51.476;7.210;2023-03-23T11:49:26;99233.00;;;14.90
11424;BMP180;5768;51.476;7.210;2023-03-23T11:54:34;99241.00;;;15.00
11424;BMP180;5768;51.476;7.210;2023-03-23T11:59:40;99230.00;;;14.60
11424;BMP180;5768;51.476;7.210;2023-03-23T12:05:26;99236.00;;;14.80
11424;BMP180;5768;51.476;7.210;2023-03-23T12:10:39;99228.00;;;15.60
11424;BMP180;5768;51.476;7.210;2023-03-23T12:15:55;99228.00;;;16.10
11424;BMP180;5768;51.476;7.210;2023-03-23T12:21:11;99231.00;;;15.80
11424;BMP180;5768;51.476;7.210;2023-03-23T12:26:20;99238.00;;;15.60
11424;BMP180;5768;51.476;7.210;2023-03-23T12:31:34;99253.00;;;15.60
11424;BMP180;5768;51.476;7.210;2023-03-23T12:36:56;99266.00;;;15.30
11424;BMP180;5768;51.476;7.210;2023-03-23T12:42:11;99246.00;;;15.20
11424;BMP180;5768;51.476;7.210;2023-03-23T12:47:31;99236.00;;;15.60
11424;BMP180;5768;51.476;7.210;2023-03-23T12:52:43;99249.00;;;15.90
11424;BMP180;5768;51.476;7.210;2023-03-23T12:57:54;99231.00;;;15.80
11424;BMP180;5768;51.476;7.210;2023-03-23T13:03:09;99228.00;;;16.00
11424;BMP180;5768;51.476;7.210;2023-03-23T13:08:19;99241.00;;;16.10
11424;BMP180;5768;51.476;7.210;2023-03-23T13:13:39;99242.00;;;16.00
11424;BMP180;5768;51.476;7.210;2023-03-23T13:18:56;99231.00;;;16.40
11424;BMP180;5768;51.476;7.210;2023-03-23T13:24:06;99224.00;;;16.20
11424;BMP180;5768;51.476;7.210;2023-03-23T13:29:15;99193.00;;;15.90
11424;BMP180;5768;51.476;7.210;2023-03-23T13:34:24;99198.00;;;16.00
11424;BMP180;5768;51.476;7.210;2023-03-23T13:39:30;99196.00;;;16.30
11424;BMP180;5768;51.476;7.210;2023-03-23T13:44:53;99203.00;;;16.80
11424;BMP180;5768;51.476;7.210;2023-03-23T13:50:01;99209.00;;;17.00
11424;BMP180;5768;51.476;7.210;2023-03-23T13:55:38;99206.00;;;16.70
11424;BMP180;5768;51.476;7.210;2023-03-23T14:00:49;99200.00;;;16.60
11424;BMP180;5768;51.476;7.210;2023-03-23T14:06:04;99215.00;;;16.70
11424;BMP180;5768;51.476;7.210;2023-03-23T14:11:15;99216.00;;;16.60
11424;BMP180;5768;51.476;7.210;2023-03-23T14:16:22;99223.00;;;16.80
11424;BMP180;5768;51.476;7.210;2023-03-23T14:21:33;99215.00;;;17.50
11424;BMP180;5768;51.476;7.210;2023-03-23T14:26:36;99218.00;;;18.10
11424;BMP180;5768;51.476;7.210;2023-03-23T14:31:40;99213.00;;;18.80
11424;BMP180;5768;51.476;7.210;2023-03-23T14:36:44;99225.00;;;19.70
11424;BMP180;5768;51.476;7.210;2023-03-23T14:41:47;99235.00;;;19.70
11424;BMP180;5768;51.476;7.210;2023-03-23T14:46:50;99216.00;;;22.20
11424;BMP180;5768;51.476;7.210;2023-03-23T14:51:55;99224.00;;;25.40
11424;BMP180;5768;51.476;7.210;2023-03-23T14:57:11;99213.00;;;28.20
11424;BMP180;5768;51.476;7.210;2023-03-23T15:02:18;99229.00;;;27.20
11424;BMP180;5768;51.476;7.210;2023-03-23T15:07:30;99201.00;;;24.50
11424;BMP180;5768;51.476;7.210;2023-03-23T15:12:34;99193.00;;;22.50
11424;BMP180;5768;51.476;7.210;2023-03-23T15:17:38;99185.00;;;21.50
11424;BMP180;5768;51.476;7.210;2023-03-23T15:22:48;99170.00;;;21.40
11424;BMP180;5768;51.476;7.210;2023-03-23T15:27:54;99158.00;;;22.30
11424;BMP180;5768;51.476;7.210;2023-03-23T15:33:02;99148.00;;;24.70
11424;BMP180;5768;51.476;7.210;2023-03-23T15:38:24;99149.00;;;27.40
11424;BMP180;5768;51.476;7.210;2023-03-23T15:43:31;99150.00;;;27.70
11424;BMP180;5768;51.476;7.210;2023-03-23T15:48:48;99150.00;;;28.40
11424;BMP180;5768;51.476;7.210;2023-03-23T15:53:53;99147.00;;;29.10
11424;BMP180;5768;51.476;7.210;2023-03-23T15:58:57;99157.00;;;29.10
11424;BMP180;5768;51.476;7.210;2023-03-23T16:04:05;99158.00;;;28.80
11424;BMP180;5768;51.476;7.210;2023-03-23T16:09:14;99143.00;;;29.00
11424;BMP180;5768;51.476;7.210;2023-03-23T16:14:16;99135.00;;;29.30
11424;BMP180;5768;51.476;7.210;2023-03-23T16:19:19;99118.00;;;28.40
11424;BMP180;5768;51.476;7.210;2023-03-23T16:24:25;99140.00;;;26.90
11424;BMP180;5768;51.476;7.210;2023-03-23T16:29:27;99141.00;;;26.30
11424;BMP180;5768;51.476;7.210;2023-03-23T16:34:31;99159.00;;;27.30
11424;BMP180;5768;51.476;7.210;2023-03-23T16:39:38;99146.00;;;26.80
11424;BMP180;5768;51.476;7.210;2023-03-23T16:44:41;99139.00;;;26.40
11424;BMP180;5768;51.476;7.210;2023-03-23T16:49:43;99127.00;;;24.90
11424;BMP180;5768;51.476;7.210;2023-03-23T16:54:47;99133.00;;;23.70
11424;BMP180;5768;51.476;7.210;2023-03-23T16:59:49;99139.00;;;22.40
11424;BMP180;5768;51.476;7.210;2023-03-23T17:04:51;99145.00;;;21.70
11424;BMP180;5768;51.476;7.210;2023-03-23T17:09:55;99145.00;;;21.10
11424;BMP180;5768;51.476;7.210;2023-03-23T17:14:57;99157.00;;;20.40
11424;BMP180;5768;51.476;7.210;2023-03-23T17:20:04;99167.00;;;19.90
11424;BMP180;5768;51.476;7.210;2023-03-23T17:25:09;99156.00;;;19.60
11424;BMP180;5768;51.476;7.210;2023-03-23T17:30:12;99159.00;;;19.20
11424;BMP180;5768;51.476;7.210;2023-03-23T17:35:15;99149.00;;;19.00
11424;BMP180;5768;51.476;7.210;2023-03-23T17:40:19;99162.00;;;19.00
11424;BMP180;5768;51.476;7.210;2023-03-23T17:45:22;99167.00;;;18.90
11424;BMP180;5768;51.476;7.210;2023-03-23T17:50:24;99167.00;;;18.70
11424;BMP180;5768;51.476;7.210;2023-03-23T17:55:28;99167.00;;;18.60
11424;BMP180;5768;51.476;7.210;2023-03-23T18:00:30;99164.00;;;18.60
11424;BMP180;5768;51.476;7.210;2023-03-23T18:05:34;99154.00;;;18.50
11424;BMP180;5768;51.476;7.210;2023-03-23T18:10:40;99147.00;;;18.40
11424;BMP180;5768;51.476;7.210;2023-03-23T18:15:43;99141.00;;;18.20
11424;BMP180;5768;51.476;7.210;2023-03-23T18:20:46;99135.00;;;18.00
11424;BMP180;5768;51.476;7.210;2023-03-23T18:25:50;99127.00;;;17.60
11424;BMP180;5768;51.476;7.210;2023-03-23T18:30:53;99122.00;;;17.30
11424;BMP180;5768;51.476;7.210;2023-03-23T18:35:57;99116.00;;;17.20
11424;BMP180;5768;51.476;7.210;2023-03-23T18:41:06;99103.00;;;17.00
11424;BMP180;5768;51.476;7.210;2023-03-23T18:46:09;99101.00;;;16.90
11424;BMP180;5768;51.476;7.210;2023-03-23T18:51:12;99101.00;;;16.80
11424;BMP180;5768;51.476;7.210;2023-03-23T18:56:17;99107.00;;;16.70
11424;BMP180;5768;51.476;7.210;2023-03-23T19:01:19;99104.00;;;16.70
11424;BMP180;5768;51.476;7.210;2023-03-23T19:06:24;99093.00;;;16.70
11424;BMP180;5768;51.476;7.210;2023-03-23T19:11:29;99090.00;;;16.80
11424;BMP180;5768;51.476;7.210;2023-03-23T19:16:33;99074.00;;;16.60
11424;BMP180;5768;51.476;7.210;2023-03-23T19:21:38;99082.00;;;16.50
11424;BMP180;5768;51.476;7.210;2023-03-23T19:26:44;99074.00;;;16.30
11424;BMP180;5768;51.476;7.210;2023-03-23T19:31:47;99069.00;;;16.30
11424;BMP180;5768;51.476;7.210;2023-03-23T19:36:50;99072.00;;;16.30
11424;BMP180;5768;51.476;7.210;2023-03-23T19:41:53;99071.00;;;16.20
11424;BMP180;5768;51.476;7.210;2023-03-23T19:46:57;99059.00;;;16.10
11424;BMP180;5768;51.476;7.210;2023-03-23T19:51:59;99038.00;;;16.10
11424;BMP180;5768;51.476;7.210;2023-03-23T19:57:05;99019.00;;;16.20
11424;BMP180;5768;51.476;7.210;2023-03-23T20:02:10;99025.00;;;16.20
11424;BMP180;5768;51.476;7.210;2023-03-23T20:07:13;99022.00;;;16.20
11424;BMP180;5768;51.476;7.210;2023-03-23T20:12:17;99019.00;;;16.10
11424;BMP180;5768;51.476;7.210;2023-03-23T20:17:19;99005.00;;;16.10
11424;BMP180;5768;51.476;7.210;2023-03-23T20:22:22;99004.00;;;16.10
11424;BMP180;5768;51.476;7.210;2023-03-23T20:27:25;99006.00;;;16.10
11424;BMP180;5768;51.476;7.210;2023-03-23T20:32:29;99001.00;;;16.20
11424;BMP180;5768;51.476;7.210;2023-03-23T20:37:32;99002.00;;;16.20
11424;BMP180;5768;51.476;7.210;2023-03-23T20:42:37;98993.00;;;16.30
11424;BMP180;5768;51.476;7.210;2023-03-23T20:47:43;98985.00;;;16.30
11424;BMP180;5768;51.476;7.210;2023-03-23T20:52:46;98985.00;;;16.40
11424;BMP180;5768;51.476;7.210;2023-03-23T20:57:49;98970.00;;;16.30
11424;BMP180;5768;51.476;7.210;2023-03-23T21:02:52;98969.00;;;16.30
11424;BMP180;5768;51.476;7.210;2023-03-23T21:07:54;98964.00;;;16.30
11424;BMP180;5768;51.476;7.210;2023-03-23T21:12:59;98967.00;;;16.30
11424;BMP180;5768;51.476;7.210;2023-03-23T21:18:01;98951.00;;;16.40
11424;BMP180;5768;51.476;7.210;2023-03-23T21:23:04;98965.00;;;16.40
11424;BMP180;5768;51.476;7.210;2023-03-23T21:28:09;98952.00;;;16.40
11424;BMP180;5768;51.476;7.210;2023-03-23T21:33:12;98947.00;;;16.50
11424;BMP180;5768;51.476;7.210;2023-03-23T21:38:15;98949.00;;;16.50
11424;BMP180;5768;51.476;7.210;2023-03-23T21:43:22;98947.00;;;16.60
11424;BMP180;5768;51.476;7.210;2023-03-23T21:48:27;98942.00;;;16.50
11424;BMP180;5768;51.476;7.210;2023-03-23T21:53:30;98941.00;;;16.40
11424;BMP180;5768;51.476;7.210;2023-03-23T21:58:36;98929.00;;;16.40
11424;BMP180;5768;51.476;7.210;2023-03-23T22:03:42;98929.00;;;16.40
11424;BMP180;5768;51.476;7.210;2023-03-23T22:08:45;98935.00;;;16.30
11424;BMP180;5768;51.476;7.210;2023-03-23T22:13:51;98929.00;;;16.30
11424;BMP180;5768;51.476;7.210;2023-03-23T22:18:54;98921.00;;;16.20
11424;BMP180;5768;51.476;7.210;2023-03-23T22:23:59;98916.00;;;16.20
11424;BMP180;5768;51.476;7.210;2023-03-23T22:29:04;98907.00;;;16.10
11424;BMP180;5768;51.476;7.210;2023-03-23T22:34:07;98905.00;;;16.10
11424;BMP180;5768;51.476;7.210;2023-03-23T22:39:09;98903.00;;;16.00
11424;BMP180;5768;51.476;7.210;2023-03-23T22:44:16;98903.00;;;16.00
11424;BMP180;5768;51.476;7.210;2023-03-23T22:49:19;98901.00;;;15.90
11424;BMP180;5768;51.476;7.210;2023-03-23T22:54:21;98896.00;;;15.80
11424;BMP180;5768;51.476;7.210;2023-03-23T22:59:25;98897.00;;;15.80
11424;BMP180;5768;51.476;7.210;2023-03-23T23:04:28;98876.00;;;15.70
11424;BMP180;5768;51.476;7.210;2023-03-23T23:09:31;98888.00;;;15.70
11424;BMP180;5768;51.476;7.210;2023-03-23T23:14:35;98876.00;;;15.60
11424;BMP180;5768;51.476;7.210;2023-03-23T23:19:37;98870.00;;;15.50
11424;BMP180;5768;51.476;7.210;2023-03-23T23:24:40;98849.00;;;15.50
11424;BMP180;5768;51.476;7.210;2023-03-23T23:29:43;98840.00;;;15.50
11424;BMP180;5768;51.476;7.210;2023-03-23T23:34:49;98829.00;;;15.50
11424;BMP180;5768;51.476;7.210;2023-03-23T23:39:52;98824.00;;;15.50
11424;BMP180;5768;51.476;7.210;2023-03-23T23:44:57;98822.00;;;15.50
11424;BMP180;5768;51.476;7.210;2023-03-23T23:49:59;98823.00;;;15.50
11424;BMP180;5768;51.476;7.210;2023-03-23T23:55:02;98813.00;;;15.50
